sensor_id;sensor_type;location;lat;lon;timestamp;pressure;altitude;pressure_sealevel;temperature;humidity
60611;BME280;46439;51.164;13.572;2022-12-13T00:01:47;99786.98;;;-1.33;89.60
60611;BME280;46439;51.164;13.572;2022-12-13T00:04:17;99786.52;;;-1.32;89.63
60611;BME280;46439;51.164;13.572;2022-12-13T00:06:46;99782.95;;;-1.31;89.66
60611;BME280;46439;51.164;13.572;2022-12-13T00:09:16;99780.79;;;-1.31;89.67
60611;BME280;46439;51.164;13.572;2022-12-13T00:11:46;99779.23;;;-1.31;89.65
60611;BME280;46439;51.164;13.572;2022-12-13T00:14:15;99778.65;;;-1.33;89.63
60611;BME280;46439;51.164;13.572;2022-12-13T00:16:45;99777.66;;;-1.39;89.50
60611;BME280;46439;51.164;13.572;2022-12-13T00:19:18;99773.29;;;-1.42;89.48
60611;BME280;46439;51.164;13.572;2022-12-13T00:22:06;99776.11;;;-1.45;89.32
60611;BME280;46439;51.164;13.572;2022-12-13T00:24:38;99774.73;;;-1.45;89.41
60611;BME280;46439;51.164;13.572;2022-12-13T00:27:07;99771.20;;;-1.45;89.39
60611;BME280;46439;51.164;13.572;2022-12-13T00:29:36;99769.13;;;-1.48;89.40
60611;BME280;46439;51.164;13.572;2022-12-13T00:32:05;99769.55;;;-1.49;89.35
60611;BME280;46439;51.164;13.572;2022-12-13T00:34:33;99767.88;;;-1.50;89.40
60611;BME280;46439;51.164;13.572;2022-12-13T00:37:02;99771.56;;;-1.53;89.47
60611;BME280;46439;51.164;13.572;2022-12-13T00:39:31;99771.75;;;-1.53;89.38
60611;BME280;46439;51.164;13.572;2022-12-13T00:41:59;99771.33;;;-1.47;89.53
60611;BME280;46439;51.164;13.572;2022-12-13T00:44:28;99772.55;;;-1.44;89.56
60611;BME280;46439;51.164;13.572;2022-12-13T00:46:56;99773.35;;;-1.46;89.65
60611;BME280;46439;51.164;13.572;2022-12-13T00:49:25;99771.56;;;-1.50;89.42
60611;BME280;46439;51.164;13.572;2022-12-13T00:51:53;99771.02;;;-1.55;89.31
60611;BME280;46439;51.164;13.572;2022-12-13T00:54:22;99771.27;;;-1.54;89.27
60611;BME280;46439;51.164;13.572;2022-12-13T00:56:51;99774.13;;;-1.49;89.36
60611;BME280;46439;51.164;13.572;2022-12-13T00:59:20;99770.51;;;-1.53;89.43
60611;BME280;46439;51.164;13.572;2022-12-13T01:01:48;99764.20;;;-1.54;89.41
60611;BME280;46439;51.164;13.572;2022-12-13T01:04:17;99763.02;;;-1.54;89.44
60611;BME280;46439;51.164;13.572;2022-12-13T01:06:47;99759.73;;;-1.53;89.46
60611;BME280;46439;51.164;13.572;2022-12-13T01:09:21;99760.77;;;-1.52;89.45
60611;BME280;46439;51.164;13.572;2022-12-13T01:11:50;99764.71;;;-1.48;89.45
60611;BME280;46439;51.164;13.572;2022-12-13T01:14:20;99764.26;;;-1.44;89.68
60611;BME280;46439;51.164;13.572;2022-12-13T01:16:49;99763.02;;;-1.42;89.67
60611;BME280;46439;51.164;13.572;2022-12-13T01:19:17;99759.39;;;-1.43;89.65
60611;BME280;46439;51.164;13.572;2022-12-13T01:21:46;99761.38;;;-1.41;89.64
60611;BME280;46439;51.164;13.572;2022-12-13T01:24:14;99764.52;;;-1.35;89.68
60611;BME280;46439;51.164;13.572;2022-12-13T01:26:48;99764.20;;;-1.31;89.77
60611;BME280;46439;51.164;13.572;2022-12-13T01:29:37;99763.91;;;-1.22;90.01
60611;BME280;46439;51.164;13.572;2022-12-13T01:32:06;99760.31;;;-1.13;90.18
60611;BME280;46439;51.164;13.572;2022-12-13T01:34:34;99758.27;;;-1.02;90.39
60611;BME280;46439;51.164;13.572;2022-12-13T01:37:03;99756.15;;;-0.92;90.60
60611;BME280;46439;51.164;13.572;2022-12-13T01:39:31;99756.54;;;-0.82;90.66
60611;BME280;46439;51.164;13.572;2022-12-13T01:42:00;99754.16;;;-0.76;90.79
60611;BME280;46439;51.164;13.572;2022-12-13T01:44:58;99753.54;;;-0.73;90.85
60611;BME280;46439;51.164;13.572;2022-12-13T01:47:32;99755.95;;;-0.77;90.55
60611;BME280;46439;51.164;13.572;2022-12-13T01:50:04;99749.34;;;-0.81;90.32
60611;BME280;46439;51.164;13.572;2022-12-13T01:52:34;99750.55;;;-0.80;90.48
60611;BME280;46439;51.164;13.572;2022-12-13T01:55:05;99750.35;;;-0.85;90.37
60611;BME280;46439;51.164;13.572;2022-12-13T01:57:36;99754.33;;;-0.91;90.11
60611;BME280;46439;51.164;13.572;2022-12-13T02:00:08;99752.44;;;-0.89;89.94
60611;BME280;46439;51.164;13.572;2022-12-13T02:02:38;99753.06;;;-0.90;90.02
60611;BME280;46439;51.164;13.572;2022-12-13T02:05:10;99749.34;;;-0.85;90.21
60611;BME280;46439;51.164;13.572;2022-12-13T02:07:42;99746.09;;;-0.77;90.33
60611;BME280;46439;51.164;13.572;2022-12-13T02:10:11;99745.21;;;-0.72;90.49
60611;BME280;46439;51.164;13.572;2022-12-13T02:12:41;99746.73;;;-0.64;90.55
60611;BME280;46439;51.164;13.572;2022-12-13T02:15:13;99747.13;;;-0.60;90.79
60611;BME280;46439;51.164;13.572;2022-12-13T02:18:04;99745.50;;;-0.52;90.91
60611;BME280;46439;51.164;13.572;2022-12-13T02:21:19;99743.33;;;-0.42;90.96
60611;BME280;46439;51.164;13.572;2022-12-13T02:24:28;99740.84;;;-0.39;90.84
60611;BME280;46439;51.164;13.572;2022-12-13T02:27:08;99741.02;;;-0.37;90.80
60611;BME280;46439;51.164;13.572;2022-12-13T02:33:04;99739.77;;;-0.32;91.03
60611;BME280;46439;51.164;13.572;2022-12-13T02:35:41;99740.89;;;-0.33;90.82
60611;BME280;46439;51.164;13.572;2022-12-13T02:38:13;99739.02;;;-0.31;90.74
60611;BME280;46439;51.164;13.572;2022-12-13T02:40:46;99741.61;;;-0.30;90.77
60611;BME280;46439;51.164;13.572;2022-12-13T02:43:17;99740.89;;;-0.30;90.94
60611;BME280;46439;51.164;13.572;2022-12-13T02:45:50;99741.94;;;-0.28;90.88
60611;BME280;46439;51.164;13.572;2022-12-13T02:48:20;99739.71;;;-0.29;90.91
60611;BME280;46439;51.164;13.572;2022-12-13T02:50:51;99741.28;;;-0.26;90.72
60611;BME280;46439;51.164;13.572;2022-12-13T02:53:22;99741.63;;;-0.19;90.82
60611;BME280;46439;51.164;13.572;2022-12-13T02:55:51;99745.50;;;-0.12;91.00
60611;BME280;46439;51.164;13.572;2022-12-13T02:58:23;99741.21;;;-0.07;91.27
60611;BME280;46439;51.164;13.572;2022-12-13T03:01:02;99740.36;;;-0.09;91.34
60611;BME280;46439;51.164;13.572;2022-12-13T03:03:44;99740.40;;;-0.16;90.98
60611;BME280;46439;51.164;13.572;2022-12-13T03:06:25;99737.50;;;-0.18;90.85
60611;BME280;46439;51.164;13.572;2022-12-13T03:09:07;99736.23;;;-0.22;90.66
60611;BME280;46439;51.164;13.572;2022-12-13T03:11:51;99731.29;;;-0.27;90.63
60611;BME280;46439;51.164;13.572;2022-12-13T03:14:44;99727.33;;;-0.27;90.56
60611;BME280;46439;51.164;13.572;2022-12-13T03:17:18;99730.07;;;-0.25;90.56
60611;BME280;46439;51.164;13.572;2022-12-13T03:19:47;99730.63;;;-0.23;90.76
60611;BME280;46439;51.164;13.572;2022-12-13T03:22:18;99737.36;;;-0.21;90.83
60611;BME280;46439;51.164;13.572;2022-12-13T03:24:47;99736.67;;;-0.21;90.74
60611;BME280;46439;51.164;13.572;2022-12-13T03:27:15;99741.89;;;-0.23;90.45
60611;BME280;46439;51.164;13.572;2022-12-13T03:29:44;99738.05;;;-0.25;90.50
60611;BME280;46439;51.164;13.572;2022-12-13T03:32:12;99737.86;;;-0.30;90.48
60611;BME280;46439;51.164;13.572;2022-12-13T03:34:41;99735.05;;;-0.40;90.38
60611;BME280;46439;51.164;13.572;2022-12-13T03:37:09;99732.87;;;-0.46;90.02
60611;BME280;46439;51.164;13.572;2022-12-13T03:39:38;99730.14;;;-0.50;90.04
60611;BME280;46439;51.164;13.572;2022-12-13T03:42:06;99730.96;;;-0.49;89.82
60611;BME280;46439;51.164;13.572;2022-12-13T03:44:35;99727.77;;;-0.44;89.93
60611;BME280;46439;51.164;13.572;2022-12-13T03:47:04;99720.64;;;-0.48;90.10
60611;BME280;46439;51.164;13.572;2022-12-13T03:49:32;99713.77;;;-0.53;90.03
60611;BME280;46439;51.164;13.572;2022-12-13T03:52:01;99714.26;;;-0.52;89.76
60611;BME280;46439;51.164;13.572;2022-12-13T03:54:29;99716.60;;;-0.51;89.78
60611;BME280;46439;51.164;13.572;2022-12-13T03:56:58;99716.88;;;-0.55;89.85
60611;BME280;46439;51.164;13.572;2022-12-13T03:59:27;99719.55;;;-0.57;89.93
60611;BME280;46439;51.164;13.572;2022-12-13T04:01:55;99714.21;;;-0.57;90.03
60611;BME280;46439;51.164;13.572;2022-12-13T04:04:24;99721.45;;;-0.54;90.05
60611;BME280;46439;51.164;13.572;2022-12-13T04:06:52;99720.98;;;-0.58;90.08
60611;BME280;46439;51.164;13.572;2022-12-13T04:09:21;99722.24;;;-0.61;90.04
60611;BME280;46439;51.164;13.572;2022-12-13T04:11:50;99724.22;;;-0.61;89.79
60611;BME280;46439;51.164;13.572;2022-12-13T04:14:37;99722.42;;;-0.63;89.73
60611;BME280;46439;51.164;13.572;2022-12-13T04:17:06;99724.23;;;-0.61;89.66
60611;BME280;46439;51.164;13.572;2022-12-13T04:19:34;99728.27;;;-0.56;89.80
60611;BME280;46439;51.164;13.572;2022-12-13T04:22:03;99724.35;;;-0.58;89.95
60611;BME280;46439;51.164;13.572;2022-12-13T04:24:31;99720.91;;;-0.62;89.84
60611;BME280;46439;51.164;13.572;2022-12-13T04:27:00;99717.71;;;-0.64;89.74
60611;BME280;46439;51.164;13.572;2022-12-13T04:29:29;99713.38;;;-0.63;89.71
60611;BME280;46439;51.164;13.572;2022-12-13T04:31:58;99715.00;;;-0.61;89.82
60611;BME280;46439;51.164;13.572;2022-12-13T04:34:26;99712.55;;;-0.63;89.88
60611;BME280;46439;51.164;13.572;2022-12-13T04:36:55;99717.77;;;-0.72;89.80
60611;BME280;46439;51.164;13.572;2022-12-13T04:39:23;99719.61;;;-0.75;89.63
60611;BME280;46439;51.164;13.572;2022-12-13T04:41:52;99720.00;;;-0.75;89.66
60611;BME280;46439;51.164;13.572;2022-12-13T04:44:21;99720.96;;;-0.72;89.67
60611;BME280;46439;51.164;13.572;2022-12-13T04:46:49;99726.16;;;-0.68;89.75
60611;BME280;46439;51.164;13.572;2022-12-13T04:49:18;99725.08;;;-0.65;89.97
60611;BME280;46439;51.164;13.572;2022-12-13T04:51:46;99720.45;;;-0.65;89.93
60611;BME280;46439;51.164;13.572;2022-12-13T04:54:15;99721.17;;;-0.63;90.02
60611;BME280;46439;51.164;13.572;2022-12-13T04:56:43;99725.53;;;-0.59;90.22
60611;BME280;46439;51.164;13.572;2022-12-13T04:59:12;99724.50;;;-0.57;90.14
60611;BME280;46439;51.164;13.572;2022-12-13T05:01:40;99723.02;;;-0.56;90.23
60611;BME280;46439;51.164;13.572;2022-12-13T05:04:09;99726.92;;;-0.54;90.19
60611;BME280;46439;51.164;13.572;2022-12-13T05:06:38;99726.82;;;-0.53;90.21
60611;BME280;46439;51.164;13.572;2022-12-13T05:09:07;99729.45;;;-0.50;90.20
60611;BME280;46439;51.164;13.572;2022-12-13T05:11:36;99728.02;;;-0.50;90.27
60611;BME280;46439;51.164;13.572;2022-12-13T05:14:04;99732.74;;;-0.52;90.27
60611;BME280;46439;51.164;13.572;2022-12-13T05:16:32;99734.89;;;-0.52;90.28
60611;BME280;46439;51.164;13.572;2022-12-13T05:19:01;99730.17;;;-0.53;90.34
60611;BME280;46439;51.164;13.572;2022-12-13T05:21:29;99728.70;;;-0.57;90.30
60611;BME280;46439;51.164;13.572;2022-12-13T05:23:58;99730.59;;;-0.68;89.99
60611;BME280;46439;51.164;13.572;2022-12-13T05:26:26;99731.27;;;-0.77;89.80
60611;BME280;46439;51.164;13.572;2022-12-13T05:28:57;99731.91;;;-0.82;89.95
60611;BME280;46439;51.164;13.572;2022-12-13T05:31:26;99733.23;;;-0.90;89.60
60611;BME280;46439;51.164;13.572;2022-12-13T05:33:55;99730.56;;;-1.00;89.58
60611;BME280;46439;51.164;13.572;2022-12-13T05:36:24;99732.69;;;-1.12;89.27
60611;BME280;46439;51.164;13.572;2022-12-13T05:38:53;99737.92;;;-1.16;89.05
60611;BME280;46439;51.164;13.572;2022-12-13T05:41:23;99737.15;;;-1.20;88.96
60611;BME280;46439;51.164;13.572;2022-12-13T05:43:53;99743.52;;;-1.23;89.03
60611;BME280;46439;51.164;13.572;2022-12-13T05:46:21;99743.72;;;-1.28;89.03
60611;BME280;46439;51.164;13.572;2022-12-13T05:48:49;99742.52;;;-1.31;89.02
60611;BME280;46439;51.164;13.572;2022-12-13T05:51:18;99739.48;;;-1.33;89.02
60611;BME280;46439;51.164;13.572;2022-12-13T05:53:46;99738.65;;;-1.34;89.11
60611;BME280;46439;51.164;13.572;2022-12-13T05:56:15;99737.92;;;-1.36;88.92
60611;BME280;46439;51.164;13.572;2022-12-13T05:58:43;99738.58;;;-1.38;88.83
60611;BME280;46439;51.164;13.572;2022-12-13T06:01:14;99740.33;;;-1.41;88.96
60611;BME280;46439;51.164;13.572;2022-12-13T06:03:42;99743.85;;;-1.40;88.87
60611;BME280;46439;51.164;13.572;2022-12-13T06:06:12;99741.78;;;-1.46;88.83
60611;BME280;46439;51.164;13.572;2022-12-13T06:08:41;99745.60;;;-1.50;88.63
60611;BME280;46439;51.164;13.572;2022-12-13T06:11:09;99739.55;;;-1.52;88.76
60611;BME280;46439;51.164;13.572;2022-12-13T06:13:38;99743.55;;;-1.56;88.69
60611;BME280;46439;51.164;13.572;2022-12-13T06:16:07;99736.58;;;-1.52;88.60
60611;BME280;46439;51.164;13.572;2022-12-13T06:18:36;99739.67;;;-1.51;88.64
60611;BME280;46439;51.164;13.572;2022-12-13T06:21:06;99741.16;;;-1.47;88.75
60611;BME280;46439;51.164;13.572;2022-12-13T06:23:35;99739.26;;;-1.45;88.87
60611;BME280;46439;51.164;13.572;2022-12-13T06:26:06;99740.34;;;-1.46;88.87
60611;BME280;46439;51.164;13.572;2022-12-13T06:28:35;99739.24;;;-1.50;88.67
60611;BME280;46439;51.164;13.572;2022-12-13T06:31:04;99743.95;;;-1.52;88.72
60611;BME280;46439;51.164;13.572;2022-12-13T06:33:33;99742.91;;;-1.47;88.71
60611;BME280;46439;51.164;13.572;2022-12-13T06:36:05;99747.36;;;-1.47;88.80
60611;BME280;46439;51.164;13.572;2022-12-13T06:38:34;99747.46;;;-1.44;89.05
60611;BME280;46439;51.164;13.572;2022-12-13T06:41:10;99750.50;;;-1.42;89.00
60611;BME280;46439;51.164;13.572;2022-12-13T06:43:41;99752.91;;;-1.44;88.87
60611;BME280;46439;51.164;13.572;2022-12-13T06:46:11;99753.04;;;-1.41;89.03
60611;BME280;46439;51.164;13.572;2022-12-13T06:48:40;99752.90;;;-1.41;89.06
60611;BME280;46439;51.164;13.572;2022-12-13T06:51:09;99753.66;;;-1.42;89.06
60611;BME280;46439;51.164;13.572;2022-12-13T06:53:39;99759.12;;;-1.46;89.07
60611;BME280;46439;51.164;13.572;2022-12-13T06:56:10;99760.13;;;-1.48;89.01
60611;BME280;46439;51.164;13.572;2022-12-13T06:58:40;99759.75;;;-1.48;89.00
60611;BME280;46439;51.164;13.572;2022-12-13T07:01:11;99759.55;;;-1.50;88.97
60611;BME280;46439;51.164;13.572;2022-12-13T07:03:41;99758.77;;;-1.49;88.92
60611;BME280;46439;51.164;13.572;2022-12-13T07:06:14;99765.61;;;-1.46;89.07
60611;BME280;46439;51.164;13.572;2022-12-13T07:08:46;99766.23;;;-1.47;89.04
60611;BME280;46439;51.164;13.572;2022-12-13T07:11:16;99766.20;;;-1.44;89.25
60611;BME280;46439;51.164;13.572;2022-12-13T07:13:45;99769.02;;;-1.44;89.24
60611;BME280;46439;51.164;13.572;2022-12-13T07:16:14;99770.84;;;-1.45;89.06
60611;BME280;46439;51.164;13.572;2022-12-13T07:18:42;99774.58;;;-1.45;89.24
60611;BME280;46439;51.164;13.572;2022-12-13T07:21:13;99777.21;;;-1.45;89.11
60611;BME280;46439;51.164;13.572;2022-12-13T07:23:41;99778.38;;;-1.42;89.10
60611;BME280;46439;51.164;13.572;2022-12-13T07:26:10;99776.88;;;-1.35;89.24
60611;BME280;46439;51.164;13.572;2022-12-13T07:28:39;99780.98;;;-1.33;89.28
60611;BME280;46439;51.164;13.572;2022-12-13T07:31:09;99776.67;;;-1.32;89.28
60611;BME280;46439;51.164;13.572;2022-12-13T07:33:37;99777.31;;;-1.29;89.49
60611;BME280;46439;51.164;13.572;2022-12-13T07:36:10;99780.05;;;-1.30;89.30
60611;BME280;46439;51.164;13.572;2022-12-13T07:38:40;99782.03;;;-1.28;89.29
60611;BME280;46439;51.164;13.572;2022-12-13T07:41:08;99782.20;;;-1.25;89.25
60611;BME280;46439;51.164;13.572;2022-12-13T07:43:37;99785.73;;;-1.25;89.33
60611;BME280;46439;51.164;13.572;2022-12-13T07:46:06;99784.16;;;-1.23;89.40
60611;BME280;46439;51.164;13.572;2022-12-13T07:48:35;99785.18;;;-1.20;89.27
60611;BME280;46439;51.164;13.572;2022-12-13T07:51:06;99788.50;;;-1.15;89.41
60611;BME280;46439;51.164;13.572;2022-12-13T07:53:35;99791.41;;;-1.13;89.46
60611;BME280;46439;51.164;13.572;2022-12-13T07:56:05;99795.95;;;-1.13;89.19
60611;BME280;46439;51.164;13.572;2022-12-13T07:58:35;99796.60;;;-1.17;89.23
60611;BME280;46439;51.164;13.572;2022-12-13T08:01:06;99799.21;;;-1.21;88.91
60611;BME280;46439;51.164;13.572;2022-12-13T08:03:39;99796.04;;;-1.24;88.85
60611;BME280;46439;51.164;13.572;2022-12-13T08:06:09;99793.15;;;-1.20;88.90
60611;BME280;46439;51.164;13.572;2022-12-13T08:08:38;99792.58;;;-1.20;88.91
60611;BME280;46439;51.164;13.572;2022-12-13T08:11:09;99790.71;;;-1.19;88.94
60611;BME280;46439;51.164;13.572;2022-12-13T08:13:39;99786.50;;;-1.17;88.88
60611;BME280;46439;51.164;13.572;2022-12-13T08:16:10;99786.42;;;-1.13;88.86
60611;BME280;46439;51.164;13.572;2022-12-13T08:18:39;99787.41;;;-1.12;89.01
60611;BME280;46439;51.164;13.572;2022-12-13T08:21:09;99793.67;;;-1.08;89.02
60611;BME280;46439;51.164;13.572;2022-12-13T08:23:38;99795.94;;;-1.12;88.91
60611;BME280;46439;51.164;13.572;2022-12-13T08:26:07;99797.27;;;-1.16;88.98
60611;BME280;46439;51.164;13.572;2022-12-13T08:28:35;99796.66;;;-1.20;88.97
60611;BME280;46439;51.164;13.572;2022-12-13T08:31:07;99794.13;;;-1.19;88.75
60611;BME280;46439;51.164;13.572;2022-12-13T08:33:39;99795.16;;;-1.19;88.82
60611;BME280;46439;51.164;13.572;2022-12-13T08:36:14;99788.37;;;-1.21;88.66
60611;BME280;46439;51.164;13.572;2022-12-13T08:38:43;99790.14;;;-1.23;88.62
60611;BME280;46439;51.164;13.572;2022-12-13T08:41:13;99791.49;;;-1.20;88.69
60611;BME280;46439;51.164;13.572;2022-12-13T08:43:41;99794.06;;;-1.16;88.88
60611;BME280;46439;51.164;13.572;2022-12-13T08:46:10;99795.65;;;-1.13;88.74
60611;BME280;46439;51.164;13.572;2022-12-13T08:48:38;99791.53;;;-1.12;88.96
60611;BME280;46439;51.164;13.572;2022-12-13T08:51:08;99793.48;;;-1.10;88.97
60611;BME280;46439;51.164;13.572;2022-12-13T08:53:39;99788.43;;;-1.06;88.97
60611;BME280;46439;51.164;13.572;2022-12-13T08:56:12;99789.76;;;-1.02;89.18
60611;BME280;46439;51.164;13.572;2022-12-13T08:58:41;99790.86;;;-0.98;89.32
60611;BME280;46439;51.164;13.572;2022-12-13T09:01:09;99793.94;;;-0.97;89.25
60611;BME280;46439;51.164;13.572;2022-12-13T09:03:38;99791.70;;;-0.94;89.14
60611;BME280;46439;51.164;13.572;2022-12-13T09:06:13;99794.61;;;-0.94;89.09
60611;BME280;46439;51.164;13.572;2022-12-13T09:08:42;99796.52;;;-0.88;89.14
60611;BME280;46439;51.164;13.572;2022-12-13T09:11:12;99795.44;;;-0.83;89.28
60611;BME280;46439;51.164;13.572;2022-12-13T09:13:41;99794.09;;;-0.79;89.36
60611;BME280;46439;51.164;13.572;2022-12-13T09:16:13;99788.98;;;-0.79;89.43
60611;BME280;46439;51.164;13.572;2022-12-13T09:18:42;99792.94;;;-0.75;89.41
60611;BME280;46439;51.164;13.572;2022-12-13T09:21:13;99790.22;;;-0.71;89.34
60611;BME280;46439;51.164;13.572;2022-12-13T09:23:42;99791.33;;;-0.77;89.48
60611;BME280;46439;51.164;13.572;2022-12-13T09:26:12;99792.46;;;-0.81;89.19
60611;BME280;46439;51.164;13.572;2022-12-13T09:28:42;99786.77;;;-0.78;89.07
60611;BME280;46439;51.164;13.572;2022-12-13T09:31:12;99786.92;;;-0.73;89.18
60611;BME280;46439;51.164;13.572;2022-12-13T09:33:42;99788.75;;;-0.66;89.30
60611;BME280;46439;51.164;13.572;2022-12-13T09:36:14;99788.56;;;-0.61;89.53
60611;BME280;46439;51.164;13.572;2022-12-13T09:38:44;99785.38;;;-0.59;89.55
60611;BME280;46439;51.164;13.572;2022-12-13T09:41:20;99783.06;;;-0.63;89.45
60611;BME280;46439;51.164;13.572;2022-12-13T09:43:53;99784.80;;;-0.67;89.39
60611;BME280;46439;51.164;13.572;2022-12-13T09:46:28;99781.69;;;-0.76;89.04
60611;BME280;46439;51.164;13.572;2022-12-13T09:49:01;99779.16;;;-0.80;89.22
60611;BME280;46439;51.164;13.572;2022-12-13T09:51:34;99780.77;;;-0.83;88.96
60611;BME280;46439;51.164;13.572;2022-12-13T09:54:10;99775.26;;;-0.80;88.94
60611;BME280;46439;51.164;13.572;2022-12-13T09:56:43;99773.05;;;-0.76;88.88
60611;BME280;46439;51.164;13.572;2022-12-13T09:59:19;99766.55;;;-0.72;88.98
60611;BME280;46439;51.164;13.572;2022-12-13T10:01:50;99763.27;;;-0.66;88.96
60611;BME280;46439;51.164;13.572;2022-12-13T10:04:19;99762.00;;;-0.63;89.04
60611;BME280;46439;51.164;13.572;2022-12-13T10:06:51;99758.59;;;-0.65;88.97
60611;BME280;46439;51.164;13.572;2022-12-13T10:09:21;99761.34;;;-0.61;89.01
60611;BME280;46439;51.164;13.572;2022-12-13T10:11:52;99762.92;;;-0.56;89.03
60611;BME280;46439;51.164;13.572;2022-12-13T10:14:25;99765.20;;;-0.60;88.99
60611;BME280;46439;51.164;13.572;2022-12-13T10:17:04;99764.84;;;-0.68;88.84
60611;BME280;46439;51.164;13.572;2022-12-13T10:19:37;99759.13;;;-0.69;88.66
60611;BME280;46439;51.164;13.572;2022-12-13T10:22:13;99758.14;;;-0.73;88.40
60611;BME280;46439;51.164;13.572;2022-12-13T10:24:52;99759.01;;;-0.80;88.27
60611;BME280;46439;51.164;13.572;2022-12-13T10:27:33;99752.52;;;-0.83;88.22
60611;BME280;46439;51.164;13.572;2022-12-13T10:30:11;99751.49;;;-0.79;88.28
60611;BME280;46439;51.164;13.572;2022-12-13T10:32:51;99746.96;;;-0.72;88.46
60611;BME280;46439;51.164;13.572;2022-12-13T10:35:23;99746.31;;;-0.68;88.40
60611;BME280;46439;51.164;13.572;2022-12-13T10:37:51;99746.02;;;-0.69;88.58
60611;BME280;46439;51.164;13.572;2022-12-13T10:40:32;99746.81;;;-0.65;88.49
60611;BME280;46439;51.164;13.572;2022-12-13T10:43:14;99741.27;;;-0.60;88.62
60611;BME280;46439;51.164;13.572;2022-12-13T10:48:24;99738.23;;;-0.62;88.57
60611;BME280;46439;51.164;13.572;2022-12-13T10:51:03;99738.50;;;-0.68;88.28
60611;BME280;46439;51.164;13.572;2022-12-13T10:53:36;99737.41;;;-0.72;88.16
60611;BME280;46439;51.164;13.572;2022-12-13T10:56:08;99734.70;;;-0.76;88.17
60611;BME280;46439;51.164;13.572;2022-12-13T10:58:38;99729.61;;;-0.71;88.14
60611;BME280;46439;51.164;13.572;2022-12-13T11:01:20;99728.53;;;-0.64;88.28
60611;BME280;46439;51.164;13.572;2022-12-13T11:03:59;99724.93;;;-0.61;88.29
60611;BME280;46439;51.164;13.572;2022-12-13T11:06:38;99723.94;;;-0.50;88.35
60611;BME280;46439;51.164;13.572;2022-12-13T11:09:15;99723.91;;;-0.45;88.61
60611;BME280;46439;51.164;13.572;2022-12-13T11:11:52;99723.89;;;-0.44;88.62
60611;BME280;46439;51.164;13.572;2022-12-13T11:14:25;99723.83;;;-0.39;88.78
60611;BME280;46439;51.164;13.572;2022-12-13T11:16:56;99719.52;;;-0.35;88.66
60611;BME280;46439;51.164;13.572;2022-12-13T11:19:33;99722.23;;;-0.34;88.44
60611;BME280;46439;51.164;13.572;2022-12-13T11:22:04;99714.58;;;-0.31;88.57
60611;BME280;46439;51.164;13.572;2022-12-13T11:24:36;99717.21;;;-0.38;88.55
60611;BME280;46439;51.164;13.572;2022-12-13T11:27:20;99716.71;;;-0.36;88.29
60611;BME280;46439;51.164;13.572;2022-12-13T11:30:10;99714.61;;;-0.36;88.49
60611;BME280;46439;51.164;13.572;2022-12-13T11:33:03;99710.76;;;-0.29;88.61
60611;BME280;46439;51.164;13.572;2022-12-13T11:35:35;99708.48;;;-0.23;88.62
60611;BME280;46439;51.164;13.572;2022-12-13T11:38:20;99707.28;;;-0.16;88.78
60611;BME280;46439;51.164;13.572;2022-12-13T11:40:55;99710.13;;;-0.12;88.98
60611;BME280;46439;51.164;13.572;2022-12-13T11:43:30;99707.45;;;-0.09;88.96
60611;BME280;46439;51.164;13.572;2022-12-13T11:46:10;99704.58;;;-0.04;89.23
60611;BME280;46439;51.164;13.572;2022-12-13T11:48:50;99700.55;;;0.05;89.19
60611;BME280;46439;51.164;13.572;2022-12-13T11:51:30;99703.98;;;0.09;89.08
60611;BME280;46439;51.164;13.572;2022-12-13T11:54:13;99703.77;;;0.09;89.09
60611;BME280;46439;51.164;13.572;2022-12-13T11:56:47;99700.26;;;0.04;89.08
60611;BME280;46439;51.164;13.572;2022-12-13T11:59:20;99707.65;;;0.00;88.86
60611;BME280;46439;51.164;13.572;2022-12-13T12:02:04;99704.51;;;-0.05;88.63
60611;BME280;46439;51.164;13.572;2022-12-13T12:04:44;99702.91;;;-0.07;88.49
60611;BME280;46439;51.164;13.572;2022-12-13T12:07:18;99705.56;;;-0.07;88.54
60611;BME280;46439;51.164;13.572;2022-12-13T12:09:54;99705.09;;;-0.11;88.50
60611;BME280;46439;51.164;13.572;2022-12-13T12:12:33;99707.88;;;-0.10;88.65
60611;BME280;46439;51.164;13.572;2022-12-13T12:15:09;99708.27;;;-0.17;88.43
60611;BME280;46439;51.164;13.572;2022-12-13T12:17:42;99705.88;;;-0.18;88.22
60611;BME280;46439;51.164;13.572;2022-12-13T12:20:14;99705.23;;;-0.25;88.36
60611;BME280;46439;51.164;13.572;2022-12-13T12:22:51;99708.11;;;-0.27;88.04
60611;BME280;46439;51.164;13.572;2022-12-13T12:25:29;99706.35;;;-0.25;88.21
60611;BME280;46439;51.164;13.572;2022-12-13T12:28:19;99707.28;;;-0.16;88.31
60611;BME280;46439;51.164;13.572;2022-12-13T12:31:00;99709.42;;;-0.12;88.36
60611;BME280;46439;51.164;13.572;2022-12-13T12:33:40;99704.14;;;-0.09;88.34
60611;BME280;46439;51.164;13.572;2022-12-13T12:36:33;99709.29;;;-0.03;88.66
60611;BME280;46439;51.164;13.572;2022-12-13T12:39:33;99709.68;;;-0.01;88.65
60611;BME280;46439;51.164;13.572;2022-12-13T12:45:26;99710.27;;;0.12;88.66
60611;BME280;46439;51.164;13.572;2022-12-13T12:48:09;99713.11;;;0.08;88.64
60611;BME280;46439;51.164;13.572;2022-12-13T12:50:50;99711.45;;;0.06;88.67
60611;BME280;46439;51.164;13.572;2022-12-13T12:53:30;99708.55;;;0.12;88.69
60611;BME280;46439;51.164;13.572;2022-12-13T12:56:35;99705.48;;;0.22;88.75
60611;BME280;46439;51.164;13.572;2022-12-13T12:59:17;99698.71;;;0.26;89.02
60611;BME280;46439;51.164;13.572;2022-12-13T13:01:57;99699.21;;;0.32;89.02
60611;BME280;46439;51.164;13.572;2022-12-13T13:04:34;99698.18;;;0.31;89.03
60611;BME280;46439;51.164;13.572;2022-12-13T13:07:12;99700.01;;;0.28;88.81
60611;BME280;46439;51.164;13.572;2022-12-13T13:09:44;99698.10;;;0.28;88.99
60611;BME280;46439;51.164;13.572;2022-12-13T13:12:17;99697.05;;;0.25;88.82
60611;BME280;46439;51.164;13.572;2022-12-13T13:14:46;99694.98;;;0.23;88.87
60611;BME280;46439;51.164;13.572;2022-12-13T13:17:48;99693.08;;;0.26;88.50
60611;BME280;46439;51.164;13.572;2022-12-13T13:20:22;99693.75;;;0.36;88.81
60611;BME280;46439;51.164;13.572;2022-12-13T13:22:53;99689.92;;;0.46;89.02
60611;BME280;46439;51.164;13.572;2022-12-13T13:25:30;99690.09;;;0.53;89.30
60611;BME280;46439;51.164;13.572;2022-12-13T13:28:05;99694.48;;;0.54;89.28